sensor_id;sensor_type;location;lat;lon;timestamp;temperature;humidity
34542;DHT22;20784;51.332;12.410;2023-04-03T00:00:28;3.90;99.90
34542;DHT22;20784;51.332;12.410;2023-04-03T00:02:54;3.80;99.90
34542;DHT22;20784;51.332;12.410;2023-04-03T00:05:19;3.80;99.90
34542;DHT22;20784;51.332;12.410;2023-04-03T00:07:45;3.70;99.90
34542;DHT22;20784;51.332;12.410;2023-04-03T00:10:11;3.60;99.90
34542;DHT22;20784;51.332;12.410;2023-04-03T00:12:45;3.70;99.90
34542;DHT22;20784;51.332;12.410;2023-04-03T00:15:13;3.70;99.90
34542;DHT22;20784;51.332;12.410;2023-04-03T00:17:39;3.70;99.90
34542;DHT22;20784;51.332;12.410;2023-04-03T00:20:05;3.60;99.90
34542;DHT22;20784;51.332;12.410;2023-04-03T00:22:31;3.60;99.90
34542;DHT22;20784;51.332;12.410;2023-04-03T00:24:56;3.70;99.90
34542;DHT22;20784;51.332;12.410;2023-04-03T00:27:30;3.70;99.90
34542;DHT22;20784;51.332;12.410;2023-04-03T00:29:55;3.60;99.90
34542;DHT22;20784;51.332;12.410;2023-04-03T00:32:24;3.70;99.90
34542;DHT22;20784;51.332;12.410;2023-04-03T00:34:49;3.50;99.90
34542;DHT22;20784;51.332;12.410;2023-04-03T00:37:15;3.40;99.90
34542;DHT22;20784;51.332;12.410;2023-04-03T00:39:41;3.40;99.90
34542;DHT22;20784;51.332;12.410;2023-04-03T00:42:06;3.40;99.90
34542;DHT22;20784;51.332;12.410;2023-04-03T00:47:02;3.40;99.90
34542;DHT22;20784;51.332;12.410;2023-04-03T00:49:31;3.40;99.90
34542;DHT22;20784;51.332;12.410;2023-04-03T00:51:57;3.40;99.90
34542;DHT22;20784;51.332;12.410;2023-04-03T00:54:24;3.30;99.90
34542;DHT22;20784;51.332;12.410;2023-04-03T00:56:54;3.30;99.90
34542;DHT22;20784;51.332;12.410;2023-04-03T00:59:23;3.20;99.90
34542;DHT22;20784;51.332;12.410;2023-04-03T01:01:53;3.30;99.90
34542;DHT22;20784;51.332;12.410;2023-04-03T01:04:35;3.30;99.90
34542;DHT22;20784;51.332;12.410;2023-04-03T01:07:04;3.30;99.90
34542;DHT22;20784;51.332;12.410;2023-04-03T01:09:31;3.20;99.90
34542;DHT22;20784;51.332;12.410;2023-04-03T01:12:16;3.20;99.90
34542;DHT22;20784;51.332;12.410;2023-04-03T01:14:46;3.10;99.90
34542;DHT22;20784;51.332;12.410;2023-04-03T01:17:32;3.10;99.90
34542;DHT22;20784;51.332;12.410;2023-04-03T01:23:22;3.00;99.90
34542;DHT22;20784;51.332;12.410;2023-04-03T01:26:36;3.00;99.90
34542;DHT22;20784;51.332;12.410;2023-04-03T01:29:03;2.90;99.90
34542;DHT22;20784;51.332;12.410;2023-04-03T01:34:01;2.80;99.90
34542;DHT22;20784;51.332;12.410;2023-04-03T01:36:30;2.80;99.90
34542;DHT22;20784;51.332;12.410;2023-04-03T01:38:58;2.70;99.90
34542;DHT22;20784;51.332;12.410;2023-04-03T01:41:24;2.80;99.90
34542;DHT22;20784;51.332;12.410;2023-04-03T01:43:51;2.70;99.90
34542;DHT22;20784;51.332;12.410;2023-04-03T01:46:17;2.70;99.90
34542;DHT22;20784;51.332;12.410;2023-04-03T01:48:43;2.60;99.90
34542;DHT22;20784;51.332;12.410;2023-04-03T01:51:09;2.60;99.90
34542;DHT22;20784;51.332;12.410;2023-04-03T01:53:35;2.50;99.90
34542;DHT22;20784;51.332;12.410;2023-04-03T01:56:01;2.50;99.90
34542;DHT22;20784;51.332;12.410;2023-04-03T01:58:27;2.50;99.90
34542;DHT22;20784;51.332;12.410;2023-04-03T02:00:53;2.50;99.90
34542;DHT22;20784;51.332;12.410;2023-04-03T02:03:19;2.40;99.90
34542;DHT22;20784;51.332;12.410;2023-04-03T02:05:45;2.50;99.90
34542;DHT22;20784;51.332;12.410;2023-04-03T02:08:11;2.40;99.90
34542;DHT22;20784;51.332;12.410;2023-04-03T02:10:37;2.50;99.90
34542;DHT22;20784;51.332;12.410;2023-04-03T02:13:03;2.50;99.90
34542;DHT22;20784;51.332;12.410;2023-04-03T02:15:29;2.50;99.90
34542;DHT22;20784;51.332;12.410;2023-04-03T02:17:55;2.40;99.90
34542;DHT22;20784;51.332;12.410;2023-04-03T02:20:23;2.30;99.90
34542;DHT22;20784;51.332;12.410;2023-04-03T02:22:49;2.40;99.90
34542;DHT22;20784;51.332;12.410;2023-04-03T02:25:15;2.40;99.90
34542;DHT22;20784;51.332;12.410;2023-04-03T02:27:40;2.40;99.90
34542;DHT22;20784;51.332;12.410;2023-04-03T02:30:06;2.40;99.90
34542;DHT22;20784;51.332;12.410;2023-04-03T02:32:34;2.40;99.90
34542;DHT22;20784;51.332;12.410;2023-04-03T02:35:00;2.30;99.90
34542;DHT22;20784;51.332;12.410;2023-04-03T02:37:26;2.30;99.90
34542;DHT22;20784;51.332;12.410;2023-04-03T02:39:54;2.30;99.90
34542;DHT22;20784;51.332;12.410;2023-04-03T02:42:20;2.30;99.90
34542;DHT22;20784;51.332;12.410;2023-04-03T02:44:45;2.20;99.90
34542;DHT22;20784;51.332;12.410;2023-04-03T02:47:11;2.20;99.90
34542;DHT22;20784;51.332;12.410;2023-04-03T02:49:37;2.00;99.90
34542;DHT22;20784;51.332;12.410;2023-04-03T02:52:03;2.00;99.90
34542;DHT22;20784;51.332;12.410;2023-04-03T02:54:29;2.00;99.90
34542;DHT22;20784;51.332;12.410;2023-04-03T02:56:56;1.90;99.90
34542;DHT22;20784;51.332;12.410;2023-04-03T02:59:22;1.90;99.90
34542;DHT22;20784;51.332;12.410;2023-04-03T03:01:48;2.00;99.90
34542;DHT22;20784;51.332;12.410;2023-04-03T03:04:14;2.10;99.90
34542;DHT22;20784;51.332;12.410;2023-04-03T03:06:39;1.90;99.90
34542;DHT22;20784;51.332;12.410;2023-04-03T03:09:05;1.90;99.90
34542;DHT22;20784;51.332;12.410;2023-04-03T03:11:31;1.90;99.90
34542;DHT22;20784;51.332;12.410;2023-04-03T03:13:57;1.90;99.90
34542;DHT22;20784;51.332;12.410;2023-04-03T03:16:22;1.80;99.90
34542;DHT22;20784;51.332;12.410;2023-04-03T03:18:48;1.80;99.90
34542;DHT22;20784;51.332;12.410;2023-04-03T03:21:14;1.80;99.90
34542;DHT22;20784;51.332;12.410;2023-04-03T03:23:40;1.70;99.90
34542;DHT22;20784;51.332;12.410;2023-04-03T03:26:08;1.70;99.90
34542;DHT22;20784;51.332;12.410;2023-04-03T03:28:35;1.80;99.90
34542;DHT22;20784;51.332;12.410;2023-04-03T03:31:04;1.70;99.90
34542;DHT22;20784;51.332;12.410;2023-04-03T03:33:31;1.70;99.90
34542;DHT22;20784;51.332;12.410;2023-04-03T03:35:57;1.70;99.90
34542;DHT22;20784;51.332;12.410;2023-04-03T03:38:26;1.60;99.90
34542;DHT22;20784;51.332;12.410;2023-04-03T03:40:54;1.40;99.90
34542;DHT22;20784;51.332;12.410;2023-04-03T03:43:20;1.50;99.90
34542;DHT22;20784;51.332;12.410;2023-04-03T03:45:50;1.50;99.90
34542;DHT22;20784;51.332;12.410;2023-04-03T03:48:17;1.40;99.90
34542;DHT22;20784;51.332;12.410;2023-04-03T03:50:46;1.50;99.90
34542;DHT22;20784;51.332;12.410;2023-04-03T03:53:11;1.40;99.90
34542;DHT22;20784;51.332;12.410;2023-04-03T03:55:39;1.40;99.90
34542;DHT22;20784;51.332;12.410;2023-04-03T03:58:05;1.40;99.90
34542;DHT22;20784;51.332;12.410;2023-04-03T04:00:34;1.40;99.90
34542;DHT22;20784;51.332;12.410;2023-04-03T04:03:00;1.50;99.90
34542;DHT22;20784;51.332;12.410;2023-04-03T04:05:29;1.40;99.90
34542;DHT22;20784;51.332;12.410;2023-04-03T04:07:54;1.30;99.90
34542;DHT22;20784;51.332;12.410;2023-04-03T04:10:20;1.30;99.90
34542;DHT22;20784;51.332;12.410;2023-04-03T04:12:48;1.30;99.90
34542;DHT22;20784;51.332;12.410;2023-04-03T04:15:16;1.40;99.90
34542;DHT22;20784;51.332;12.410;2023-04-03T04:17:42;1.30;99.90
34542;DHT22;20784;51.332;12.410;2023-04-03T04:20:08;1.20;99.90
34542;DHT22;20784;51.332;12.410;2023-04-03T04:22:33;1.20;99.90
34542;DHT22;20784;51.332;12.410;2023-04-03T04:25:02;1.30;99.90
34542;DHT22;20784;51.332;12.410;2023-04-03T04:27:27;1.20;99.90
34542;DHT22;20784;51.332;12.410;2023-04-03T04:29:53;1.30;99.90
34542;DHT22;20784;51.332;12.410;2023-04-03T04:32:19;1.30;99.90
34542;DHT22;20784;51.332;12.410;2023-04-03T04:34:44;1.30;99.90
34542;DHT22;20784;51.332;12.410;2023-04-03T04:37:10;1.10;99.90
34542;DHT22;20784;51.332;12.410;2023-04-03T04:39:35;1.10;99.90
34542;DHT22;20784;51.332;12.410;2023-04-03T04:42:01;1.10;99.90
34542;DHT22;20784;51.332;12.410;2023-04-03T04:44:26;1.10;99.90
34542;DHT22;20784;51.332;12.410;2023-04-03T04:46:52;1.10;99.90
34542;DHT22;20784;51.332;12.410;2023-04-03T04:49:18;1.10;99.90
34542;DHT22;20784;51.332;12.410;2023-04-03T04:51:45;1.20;99.90
34542;DHT22;20784;51.332;12.410;2023-04-03T04:54:11;1.10;99.90
34542;DHT22;20784;51.332;12.410;2023-04-03T04:56:37;1.10;99.90
34542;DHT22;20784;51.332;12.410;2023-04-03T04:59:02;1.20;99.90
34542;DHT22;20784;51.332;12.410;2023-04-03T05:08:03;1.20;99.90
34542;DHT22;20784;51.332;12.410;2023-04-03T05:10:45;1.20;99.90
34542;DHT22;20784;51.332;12.410;2023-04-03T05:16:41;1.10;99.90
34542;DHT22;20784;51.332;12.410;2023-04-03T05:19:27;1.20;99.90
34542;DHT22;20784;51.332;12.410;2023-04-03T05:21:53;1.30;99.90
34542;DHT22;20784;51.332;12.410;2023-04-03T05:27:13;1.40;99.90
34542;DHT22;20784;51.332;12.410;2023-04-03T05:29:54;1.50;99.90
34542;DHT22;20784;51.332;12.410;2023-04-03T05:32:21;1.50;99.90
34542;DHT22;20784;51.332;12.410;2023-04-03T05:34:59;1.40;99.90
34542;DHT22;20784;51.332;12.410;2023-04-03T05:37:40;1.50;99.90
34542;DHT22;20784;51.332;12.410;2023-04-03T05:40:07;1.70;99.90
34542;DHT22;20784;51.332;12.410;2023-04-03T05:42:55;1.70;99.90
34542;DHT22;20784;51.332;12.410;2023-04-03T05:54:44;1.60;99.90
34542;DHT22;20784;51.332;12.410;2023-04-03T05:57:21;1.60;99.90
34542;DHT22;20784;51.332;12.410;2023-04-03T06:00:19;1.50;99.90
34542;DHT22;20784;51.332;12.410;2023-04-03T06:02:56;1.50;99.90
34542;DHT22;20784;51.332;12.410;2023-04-03T06:06:13;1.70;99.90
34542;DHT22;20784;51.332;12.410;2023-04-03T06:18:50;1.70;99.90
34542;DHT22;20784;51.332;12.410;2023-04-03T06:36:11;1.80;99.90
34542;DHT22;20784;51.332;12.410;2023-04-03T06:39:22;1.90;99.90
34542;DHT22;20784;51.332;12.410;2023-04-03T06:42:19;2.00;99.90
34542;DHT22;20784;51.332;12.410;2023-04-03T06:49:17;2.20;99.90
34542;DHT22;20784;51.332;12.410;2023-04-03T06:59:05;2.60;99.90
34542;DHT22;20784;51.332;12.410;2023-04-03T07:01:42;2.70;99.90
34542;DHT22;20784;51.332;12.410;2023-04-03T07:04:34;2.80;99.90
34542;DHT22;20784;51.332;12.410;2023-04-03T07:07:56;2.90;99.90
34542;DHT22;20784;51.332;12.410;2023-04-03T07:25:31;3.50;99.90
34542;DHT22;20784;51.332;12.410;2023-04-03T07:28:38;3.90;99.90
34542;DHT22;20784;51.332;12.410;2023-04-03T07:35:16;4.50;99.90
34542;DHT22;20784;51.332;12.410;2023-04-03T08:04:57;6.80;99.90
34542;DHT22;20784;51.332;12.410;2023-04-03T08:20:12;6.40;99.90
34542;DHT22;20784;51.332;12.410;2023-04-03T08:23:25;6.30;99.90
34542;DHT22;20784;51.332;12.410;2023-04-03T08:29:16;6.40;99.90
34542;DHT22;20784;51.332;12.410;2023-04-03T08:35:25;7.50;99.90
34542;DHT22;20784;51.332;12.410;2023-04-03T08:42:07;8.20;99.90
34542;DHT22;20784;51.332;12.410;2023-04-03T08:48:36;8.30;99.90
34542;DHT22;20784;51.332;12.410;2023-04-03T08:55:56;8.40;99.90
34542;DHT22;20784;51.332;12.410;2023-04-03T09:04:52;8.70;99.90
34542;DHT22;20784;51.332;12.410;2023-04-03T09:07:39;8.90;99.90
34542;DHT22;20784;51.332;12.410;2023-04-03T09:10:23;8.70;99.90
34542;DHT22;20784;51.332;12.410;2023-04-03T09:45:36;8.80;99.90
34542;DHT22;20784;51.332;12.410;2023-04-03T10:07:37;11.30;99.90
34542;DHT22;20784;51.332;12.410;2023-04-03T10:38:46;12.80;99.90
34542;DHT22;20784;51.332;12.410;2023-04-03T11:07:08;10.30;99.90
34542;DHT22;20784;51.332;12.410;2023-04-03T11:31:08;10.40;99.90
34542;DHT22;20784;51.332;12.410;2023-04-03T12:10:26;10.50;99.90
34542;DHT22;20784;51.332;12.410;2023-04-03T12:16:55;9.90;99.90
34542;DHT22;20784;51.332;12.410;2023-04-03T12:41:51;8.90;99.90
34542;DHT22;20784;51.332;12.410;2023-04-03T12:57:21;8.60;99.90
34542;DHT22;20784;51.332;12.410;2023-04-03T13:03:24;8.40;99.90
34542;DHT22;20784;51.332;12.410;2023-04-03T13:06:03;8.50;99.90
34542;DHT22;20784;51.332;12.410;2023-04-03T13:15:22;8.20;99.90
34542;DHT22;20784;51.332;12.410;2023-04-03T13:22:13;8.40;99.90
34542;DHT22;20784;51.332;12.410;2023-04-03T13:25:09;8.30;99.90
34542;DHT22;20784;51.332;12.410;2023-04-03T13:27:46;8.30;99.90
34542;DHT22;20784;51.332;12.410;2023-04-03T13:33:21;8.20;99.90
34542;DHT22;20784;51.332;12.410;2023-04-03T13:35:56;8.10;99.90
34542;DHT22;20784;51.332;12.410;2023-04-03T13:42:21;8.00;99.90
34542;DHT22;20784;51.332;12.410;2023-04-03T13:47:40;8.00;99.90
34542;DHT22;20784;51.332;12.410;2023-04-03T13:56:57;7.70;99.90
34542;DHT22;20784;51.332;12.410;2023-04-03T13:59:31;7.80;99.90
34542;DHT22;20784;51.332;12.410;2023-04-03T14:06:57;7.60;99.90
34542;DHT22;20784;51.332;12.410;2023-04-03T14:09:52;7.60;99.90
34542;DHT22;20784;51.332;12.410;2023-04-03T14:12:54;7.50;99.90
34542;DHT22;20784;51.332;12.410;2023-04-03T14:15:48;7.40;99.90
34542;DHT22;20784;51.332;12.410;2023-04-03T14:18:20;7.30;99.90
34542;DHT22;20784;51.332;12.410;2023-04-03T14:21:05;7.20;99.90
34542;DHT22;20784;51.332;12.410;2023-04-03T14:23:50;7.20;99.90
34542;DHT22;20784;51.332;12.410;2023-04-03T14:26:37;7.20;99.90
34542;DHT22;20784;51.332;12.410;2023-04-03T14:29:26;7.20;99.90
34542;DHT22;20784;51.332;12.410;2023-04-03T14:31:52;7.20;99.90
34542;DHT22;20784;51.332;12.410;2023-04-03T14:34:25;7.00;99.90
34542;DHT22;20784;51.332;12.410;2023-04-03T14:36:59;7.00;99.90
34542;DHT22;20784;51.332;12.410;2023-04-03T14:39:41;6.90;99.90
34542;DHT22;20784;51.332;12.410;2023-04-03T14:45:49;7.00;99.90
34542;DHT22;20784;51.332;12.410;2023-04-03T14:48:27;7.10;99.90
34542;DHT22;20784;51.332;12.410;2023-04-03T14:50:54;7.30;99.90
34542;DHT22;20784;51.332;12.410;2023-04-03T14:53:25;7.20;99.90
34542;DHT22;20784;51.332;12.410;2023-04-03T14:56:27;7.10;99.90
34542;DHT22;20784;51.332;12.410;2023-04-03T14:58:57;7.10;99.90
34542;DHT22;20784;51.332;12.410;2023-04-03T15:01:31;7.10;99.90
34542;DHT22;20784;51.332;12.410;2023-04-03T15:04:33;7.10;99.90
34542;DHT22;20784;51.332;12.410;2023-04-03T15:06:58;6.90;99.90
34542;DHT22;20784;51.332;12.410;2023-04-03T15:09:34;6.90;99.90
34542;DHT22;20784;51.332;12.410;2023-04-03T15:12:08;6.80;99.90
34542;DHT22;20784;51.332;12.410;2023-04-03T15:15:03;6.50;99.90
34542;DHT22;20784;51.332;12.410;2023-04-03T15:18:06;6.30;99.90
34542;DHT22;20784;51.332;12.410;2023-04-03T15:20:52;6.40;99.90
34542;DHT22;20784;51.332;12.410;2023-04-03T15:23:24;6.40;99.90
34542;DHT22;20784;51.332;12.410;2023-04-03T15:26:02;6.40;99.90
34542;DHT22;20784;51.332;12.410;2023-04-03T15:28:40;6.40;99.90
34542;DHT22;20784;51.332;12.410;2023-04-03T15:31:13;6.50;99.90
34542;DHT22;20784;51.332;12.410;2023-04-03T15:33:47;6.40;99.90
34542;DHT22;20784;51.332;12.410;2023-04-03T15:36:33;6.40;99.90
34542;DHT22;20784;51.332;12.410;2023-04-03T15:39:00;6.30;99.90
34542;DHT22;20784;51.332;12.410;2023-04-03T15:41:37;6.20;99.90
34542;DHT22;20784;51.332;12.410;2023-04-03T15:44:12;6.10;99.90
34542;DHT22;20784;51.332;12.410;2023-04-03T15:46:45;5.90;99.90
34542;DHT22;20784;51.332;12.410;2023-04-03T15:49:35;5.70;99.90
34542;DHT22;20784;51.332;12.410;2023-04-03T15:52:15;5.70;99.90
34542;DHT22;20784;51.332;12.410;2023-04-03T15:54:43;5.60;99.90
34542;DHT22;20784;51.332;12.410;2023-04-03T15:57:20;5.60;99.90
34542;DHT22;20784;51.332;12.410;2023-04-03T15:59:50;5.70;99.90
34542;DHT22;20784;51.332;12.410;2023-04-03T16:02:16;5.70;99.90
34542;DHT22;20784;51.332;12.410;2023-04-03T16:04:45;5.70;99.90
34542;DHT22;20784;51.332;12.410;2023-04-03T16:07:16;5.80;99.90
34542;DHT22;20784;51.332;12.410;2023-04-03T16:09:44;5.80;99.90
34542;DHT22;20784;51.332;12.410;2023-04-03T16:12:17;5.80;99.90
34542;DHT22;20784;51.332;12.410;2023-04-03T16:14:43;5.80;99.90
34542;DHT22;20784;51.332;12.410;2023-04-03T16:17:09;5.80;99.90
34542;DHT22;20784;51.332;12.410;2023-04-03T16:19:37;5.90;99.90
34542;DHT22;20784;51.332;12.410;2023-04-03T16:22:06;6.00;99.90
34542;DHT22;20784;51.332;12.410;2023-04-03T16:24:31;6.00;99.90
34542;DHT22;20784;51.332;12.410;2023-04-03T16:26:57;6.00;99.90
34542;DHT22;20784;51.332;12.410;2023-04-03T16:29:33;6.00;99.90
34542;DHT22;20784;51.332;12.410;2023-04-03T16:32:02;5.90;99.90
34542;DHT22;20784;51.332;12.410;2023-04-03T16:34:28;6.00;99.90
34542;DHT22;20784;51.332;12.410;2023-04-03T16:36:58;5.90;99.90
34542;DHT22;20784;51.332;12.410;2023-04-03T16:39:24;5.90;99.90
34542;DHT22;20784;51.332;12.410;2023-04-03T16:41:52;5.90;99.90
34542;DHT22;20784;51.332;12.410;2023-04-03T16:44:18;5.90;99.90
34542;DHT22;20784;51.332;12.410;2023-04-03T16:46:48;5.60;99.90
34542;DHT22;20784;51.332;12.410;2023-04-03T16:49:16;5.50;99.90
34542;DHT22;20784;51.332;12.410;2023-04-03T16:51:42;5.50;99.90
34542;DHT22;20784;51.332;12.410;2023-04-03T16:54:10;5.50;99.90
34542;DHT22;20784;51.332;12.410;2023-04-03T16:56:38;5.20;99.90
34542;DHT22;20784;51.332;12.410;2023-04-03T16:59:07;5.30;99.90
34542;DHT22;20784;51.332;12.410;2023-04-03T17:01:35;5.30;99.90
34542;DHT22;20784;51.332;12.410;2023-04-03T17:04:13;5.20;99.90
34542;DHT22;20784;51.332;12.410;2023-04-03T17:06:39;5.30;99.90
34542;DHT22;20784;51.332;12.410;2023-04-03T17:09:06;5.30;99.90
34542;DHT22;20784;51.332;12.410;2023-04-03T17:11:37;5.30;99.90
34542;DHT22;20784;51.332;12.410;2023-04-03T17:14:03;5.20;99.90
34542;DHT22;20784;51.332;12.410;2023-04-03T17:16:31;5.30;99.90
34542;DHT22;20784;51.332;12.410;2023-04-03T17:19:04;5.30;99.90
34542;DHT22;20784;51.332;12.410;2023-04-03T17:21:31;5.30;99.90
34542;DHT22;20784;51.332;12.410;2023-04-03T17:24:05;5.30;99.90
34542;DHT22;20784;51.332;12.410;2023-04-03T17:26:34;5.20;99.90
34542;DHT22;20784;51.332;12.410;2023-04-03T17:29:02;5.20;99.90
34542;DHT22;20784;51.332;12.410;2023-04-03T17:31:28;5.30;99.90
34542;DHT22;20784;51.332;12.410;2023-04-03T17:33:53;5.30;99.90
34542;DHT22;20784;51.332;12.410;2023-04-03T17:36:31;5.30;99.90
34542;DHT22;20784;51.332;12.410;2023-04-03T17:39:37;5.30;99.90
34542;DHT22;20784;51.332;12.410;2023-04-03T17:42:03;5.30;99.90
34542;DHT22;20784;51.332;12.410;2023-04-03T17:44:29;5.30;99.90
34542;DHT22;20784;51.332;12.410;2023-04-03T17:46:55;5.30;99.90
34542;DHT22;20784;51.332;12.410;2023-04-03T17:49:28;5.30;99.90
34542;DHT22;20784;51.332;12.410;2023-04-03T17:51:53;5.20;99.90
34542;DHT22;20784;51.332;12.410;2023-04-03T17:54:23;5.30;99.90
34542;DHT22;20784;51.332;12.410;2023-04-03T17:56:49;5.30;99.90
34542;DHT22;20784;51.332;12.410;2023-04-03T17:59:15;5.30;99.90
34542;DHT22;20784;51.332;12.410;2023-04-03T18:01:45;5.20;99.90
34542;DHT22;20784;51.332;12.410;2023-04-03T18:04:11;5.10;99.90
34542;DHT22;20784;51.332;12.410;2023-04-03T18:06:45;5.00;99.90
34542;DHT22;20784;51.332;12.410;2023-04-03T18:09:32;5.00;99.90
34542;DHT22;20784;51.332;12.410;2023-04-03T18:12:00;5.00;99.90
34542;DHT22;20784;51.332;12.410;2023-04-03T18:14:44;5.00;99.90
34542;DHT22;20784;51.332;12.410;2023-04-03T18:17:36;5.00;99.90
34542;DHT22;20784;51.332;12.410;2023-04-03T18:20:03;4.90;99.90
34542;DHT22;20784;51.332;12.410;2023-04-03T18:22:32;5.00;99.90
34542;DHT22;20784;51.332;12.410;2023-04-03T18:25:07;5.00;99.90
34542;DHT22;20784;51.332;12.410;2023-04-03T18:27:33;5.00;99.90
34542;DHT22;20784;51.332;12.410;2023-04-03T18:30:08;5.00;99.90
34542;DHT22;20784;51.332;12.410;2023-04-03T18:32:46;5.10;99.90
34542;DHT22;20784;51.332;12.410;2023-04-03T18:35:30;5.00;99.90
34542;DHT22;20784;51.332;12.410;2023-04-03T18:38:04;4.90;99.90
34542;DHT22;20784;51.332;12.410;2023-04-03T18:40:35;5.00;99.90
34542;DHT22;20784;51.332;12.410;2023-04-03T18:43:10;5.20;99.90
34542;DHT22;20784;51.332;12.410;2023-04-03T18:46:00;5.20;99.90
34542;DHT22;20784;51.332;12.410;2023-04-03T18:48:41;5.20;99.90
34542;DHT22;20784;51.332;12.410;2023-04-03T18:51:11;5.20;99.90
34542;DHT22;20784;51.332;12.410;2023-04-03T18:53:37;5.20;99.90
34542;DHT22;20784;51.332;12.410;2023-04-03T18:56:05;5.30;99.90
34542;DHT22;20784;51.332;12.410;2023-04-03T18:58:44;5.40;99.90
34542;DHT22;20784;51.332;12.410;2023-04-03T19:01:24;5.40;99.90
34542;DHT22;20784;51.332;12.410;2023-04-03T19:03:58;5.40;99.90
34542;DHT22;20784;51.332;12.410;2023-04-03T19:06:34;5.50;99.90
34542;DHT22;20784;51.332;12.410;2023-04-03T19:09:03;5.40;99.90
34542;DHT22;20784;51.332;12.410;2023-04-03T19:11:32;5.50;99.90
34542;DHT22;20784;51.332;12.410;2023-04-03T19:14:01;5.50;99.90
34542;DHT22;20784;51.332;12.410;2023-04-03T19:16:34;5.50;99.90
34542;DHT22;20784;51.332;12.410;2023-04-03T19:19:00;5.50;99.90
34542;DHT22;20784;51.332;12.410;2023-04-03T19:21:28;5.50;99.90
34542;DHT22;20784;51.332;12.410;2023-04-03T19:23:57;5.40;99.90
34542;DHT22;20784;51.332;12.410;2023-04-03T19:26:24;5.50;99.90
34542;DHT22;20784;51.332;12.410;2023-04-03T19:28:51;5.30;99.90
34542;DHT22;20784;51.332;12.410;2023-04-03T19:31:20;5.30;99.90
34542;DHT22;20784;51.332;12.410;2023-04-03T19:33:53;5.30;99.90
34542;DHT22;20784;51.332;12.410;2023-04-03T19:36:21;5.30;99.90
34542;DHT22;20784;51.332;12.410;2023-04-03T19:38:49;5.40;99.90
34542;DHT22;20784;51.332;12.410;2023-04-03T19:41:31;5.30;99.90
34542;DHT22;20784;51.332;12.410;2023-04-03T19:44:07;5.30;99.90
34542;DHT22;20784;51.332;12.410;2023-04-03T19:46:36;5.30;99.90
34542;DHT22;20784;51.332;12.410;2023-04-03T19:49:07;5.40;99.90
34542;DHT22;20784;51.332;12.410;2023-04-03T19:51:38;5.40;99.90
34542;DHT22;20784;51.332;12.410;2023-04-03T19:54:03;5.40;99.90
34542;DHT22;20784;51.332;12.410;2023-04-03T19:56:30;5.40;99.90
34542;DHT22;20784;51.332;12.410;2023-04-03T19:58:56;5.40;99.90
34542;DHT22;20784;51.332;12.410;2023-04-03T20:01:28;5.40;99.90
34542;DHT22;20784;51.332;12.410;2023-04-03T20:03:59;5.40;99.90
34542;DHT22;20784;51.332;12.410;2023-04-03T20:06:27;5.40;99.90
34542;DHT22;20784;51.332;12.410;2023-04-03T20:08:53;5.50;99.90
34542;DHT22;20784;51.332;12.410;2023-04-03T20:11:19;5.40;99.90
34542;DHT22;20784;51.332;12.410;2023-04-03T20:13:49;5.40;99.90
34542;DHT22;20784;51.332;12.410;2023-04-03T20:16:15;5.50;99.90
34542;DHT22;20784;51.332;12.410;2023-04-03T20:18:41;5.50;99.90
34542;DHT22;20784;51.332;12.410;2023-04-03T20:21:07;5.50;99.90
34542;DHT22;20784;51.332;12.410;2023-04-03T20:23:34;5.40;99.90
34542;DHT22;20784;51.332;12.410;2023-04-03T20:26:01;5.40;99.90
34542;DHT22;20784;51.332;12.410;2023-04-03T20:28:29;5.40;99.90
34542;DHT22;20784;51.332;12.410;2023-04-03T20:30:57;5.40;99.90
34542;DHT22;20784;51.332;12.410;2023-04-03T20:33:27;5.50;99.90
34542;DHT22;20784;51.332;12.410;2023-04-03T20:36:09;5.50;99.90
34542;DHT22;20784;51.332;12.410;2023-04-03T20:38:35;5.50;99.90
34542;DHT22;20784;51.332;12.410;2023-04-03T20:41:00;5.40;99.90
34542;DHT22;20784;51.332;12.410;2023-04-03T20:43:26;5.40;99.90
34542;DHT22;20784;51.332;12.410;2023-04-03T20:45:52;5.20;99.90
34542;DHT22;20784;51.332;12.410;2023-04-03T20:48:18;5.30;99.90
34542;DHT22;20784;51.332;12.410;2023-04-03T20:50:44;5.20;99.90
34542;DHT22;20784;51.332;12.410;2023-04-03T20:53:10;5.30;99.90
34542;DHT22;20784;51.332;12.410;2023-04-03T20:55:36;5.40;99.90
34542;DHT22;20784;51.332;12.410;2023-04-03T20:58:02;5.30;99.90
34542;DHT22;20784;51.332;12.410;2023-04-03T21:00:29;5.20;99.90
34542;DHT22;20784;51.332;12.410;2023-04-03T21:02:56;5.40;99.90
34542;DHT22;20784;51.332;12.410;2023-04-03T21:05:26;5.30;99.90
34542;DHT22;20784;51.332;12.410;2023-04-03T21:19:33;5.10;99.90
34542;DHT22;20784;51.332;12.410;2023-04-03T21:21:59;5.10;99.90
34542;DHT22;20784;51.332;12.410;2023-04-03T21:24:25;5.20;99.90
34542;DHT22;20784;51.332;12.410;2023-04-03T21:26:51;5.10;99.90
34542;DHT22;20784;51.332;12.410;2023-04-03T21:29:17;5.10;99.90
34542;DHT22;20784;51.332;12.410;2023-04-03T21:31:57;5.00;99.90
34542;DHT22;20784;51.332;12.410;2023-04-03T21:34:26;5.00;99.90
34542;DHT22;20784;51.332;12.410;2023-04-03T21:36:53;5.10;99.90
34542;DHT22;20784;51.332;12.410;2023-04-03T21:39:19;5.10;99.90
34542;DHT22;20784;51.332;12.410;2023-04-03T21:41:47;5.10;99.90
34542;DHT22;20784;51.332;12.410;2023-04-03T21:44:13;5.00;99.90
34542;DHT22;20784;51.332;12.410;2023-04-03T21:46:38;5.00;99.90
34542;DHT22;20784;51.332;12.410;2023-04-03T21:49:04;5.00;99.90
34542;DHT22;20784;51.332;12.410;2023-04-03T21:51:32;5.00;99.90
34542;DHT22;20784;51.332;12.410;2023-04-03T21:53:57;4.90;99.90
34542;DHT22;20784;51.332;12.410;2023-04-03T21:56:23;4.90;99.90
34542;DHT22;20784;51.332;12.410;2023-04-03T21:58:49;5.00;99.90
34542;DHT22;20784;51.332;12.410;2023-04-03T22:01:16;4.90;99.90
34542;DHT22;20784;51.332;12.410;2023-04-03T22:03:44;4.90;99.90
34542;DHT22;20784;51.332;12.410;2023-04-03T22:06:15;4.90;99.90
34542;DHT22;20784;51.332;12.410;2023-04-03T22:08:43;4.90;99.90
34542;DHT22;20784;51.332;12.410;2023-04-03T22:11:11;4.90;99.90
34542;DHT22;20784;51.332;12.410;2023-04-03T22:13:38;4.90;99.90
34542;DHT22;20784;51.332;12.410;2023-04-03T22:16:04;4.70;99.90
34542;DHT22;20784;51.332;12.410;2023-04-03T22:18:30;4.80;99.90
34542;DHT22;20784;51.332;12.410;2023-04-03T22:20:57;4.70;99.90
34542;DHT22;20784;51.332;12.410;2023-04-03T22:23:22;4.70;99.90
34542;DHT22;20784;51.332;12.410;2023-04-03T22:26:03;4.70;99.90
34542;DHT22;20784;51.332;12.410;2023-04-03T22:28:31;4.70;99.90
34542;DHT22;20784;51.332;12.410;2023-04-03T22:31:01;4.80;99.90
34542;DHT22;20784;51.332;12.410;2023-04-03T22:33:28;4.70;99.90
34542;DHT22;20784;51.332;12.410;2023-04-03T22:35:54;4.70;99.90
34542;DHT22;20784;51.332;12.410;2023-04-03T22:38:20;4.60;99.90
34542;DHT22;20784;51.332;12.410;2023-04-03T22:40:45;4.60;99.90
34542;DHT22;20784;51.332;12.410;2023-04-03T22:43:11;4.60;99.90